Time;durP1;ratioP1;P1;durP2;ratioP2;P2;SDS_P1;SDS_P2;PMS_P1;PMS_P2;Temp;Humidity;BMP_temperature;BMP_pressure;BME280_temperature;BME280_humidity;BME280_pressure;Samples;Min_cycle;Max_cycle;Signal;HPM_P1;HPM_P2
2022/11/14 00:00:01;;;;;;;;;;;3.10;99.90;;;;;;5084636;28;19967;-70
2022/11/14 00:02:28;;;;;;;;;;;3.10;99.90;;;;;;5085172;28;19921;-69
2022/11/14 00:04:55;;;;;;;;;;;3.10;99.90;;;;;;5095011;28;19991;-69
2022/11/14 00:07:23;;;;;;;;;;;3.10;99.90;;;;;;5086360;28;19952;-69
2022/11/14 00:09:49;;;;;;;;;;;3.00;99.90;;;;;;5085253;28;19988;-70
2022/11/14 00:12:16;;;;;;;;;;;3.00;99.90;;;;;;5085179;28;19956;-69
2022/11/14 00:14:42;;;;;;;;;;;3.00;99.90;;;;;;5084555;28;19988;-70
2022/11/14 00:17:09;;;;;;;;;;;3.00;99.90;;;;;;5085162;28;19920;-68
2022/11/14 00:19:36;;;;;;;;;;;2.90;99.90;;;;;;5085081;28;19951;-69
2022/11/14 00:22:03;;;;;;;;;;;2.90;99.90;;;;;;5085085;28;19958;-69
2022/11/14 00:24:31;;;;;;;;;;;2.90;99.90;;;;;;5084668;28;20172;-68
2022/11/14 00:26:57;;;;;;;;;;;2.90;99.90;;;;;;5084787;28;20168;-69
2022/11/14 00:29:24;;;;;;;;;;;2.80;99.90;;;;;;5084938;28;19996;-69
2022/11/14 00:31:50;;;;;;;;;;;2.70;99.90;;;;;;5088818;28;19952;-68
2022/11/14 00:34:18;;;;;;;;;;;2.60;99.90;;;;;;5104871;28;20255;-69
2022/11/14 00:36:44;;;;;;;;;;;2.60;99.90;;;;;;5104782;28;19991;-69
2022/11/14 00:39:12;;;;;;;;;;;2.60;99.90;;;;;;5104999;28;19983;-69
2022/11/14 00:41:40;;;;;;;;;;;2.60;99.90;;;;;;5104835;28;19983;-69
2022/11/14 00:44:07;;;;;;;;;;;2.60;99.90;;;;;;5104639;28;20374;-69
2022/11/14 00:46:34;;;;;;;;;;;2.60;99.90;;;;;;5104580;28;19983;-68
2022/11/14 00:49:00;;;;;;;;;;;2.60;99.90;;;;;;5104744;28;19955;-68
2022/11/14 00:51:27;;;;;;;;;;;2.60;99.90;;;;;;5097161;28;19979;-69
2022/11/14 00:53:53;;;;;;;;;;;2.60;99.90;;;;;;5084166;28;20281;-69
2022/11/14 00:56:20;;;;;;;;;;;2.60;99.90;;;;;;5084015;28;20003;-68
2022/11/14 00:58:48;;;;;;;;;;;2.50;99.90;;;;;;5083986;28;19964;-70
2022/11/14 01:01:15;;;;;;;;;;;2.50;99.90;;;;;;5083765;28;19956;-69
2022/11/14 01:03:41;;;;;;;;;;;2.50;99.90;;;;;;5104241;28;20083;-68
2022/11/14 01:06:09;;;;;;;;;;;2.50;99.90;;;;;;5098930;28;19962;-70
2022/11/14 01:08:35;;;;;;;;;;;2.40;99.90;;;;;;5103147;28;19921;-69
2022/11/14 01:11:10;;;;;;;;;;;2.40;99.90;;;;;;5103045;28;19987;-69
2022/11/14 01:13:37;;;;;;;;;;;2.30;99.90;;;;;;5103946;28;19921;-69
2022/11/14 01:16:05;;;;;;;;;;;2.30;99.90;;;;;;5103778;28;19988;-69
2022/11/14 01:18:32;;;;;;;;;;;2.30;99.90;;;;;;5104082;28;19961;-69
2022/11/14 01:20:59;;;;;;;;;;;2.30;99.90;;;;;;5104132;28;19987;-70
2022/11/14 01:23:25;;;;;;;;;;;2.30;99.90;;;;;;5103582;28;19955;-69
2022/11/14 01:25:52;;;;;;;;;;;2.30;99.90;;;;;;5103744;28;19955;-68
2022/11/14 01:28:19;;;;;;;;;;;2.30;99.90;;;;;;5103993;28;19979;-68
2022/11/14 01:30:46;;;;;;;;;;;2.20;99.90;;;;;;5103691;28;19961;-68
2022/11/14 01:33:14;;;;;;;;;;;2.20;99.90;;;;;;5103986;28;19983;-69
2022/11/14 01:35:40;;;;;;;;;;;2.20;99.90;;;;;;5103624;28;19962;-68
2022/11/14 01:38:07;;;;;;;;;;;2.20;99.90;;;;;;5103556;28;20303;-69
2022/11/14 01:40:34;;;;;;;;;;;2.20;99.90;;;;;;5103860;28;20179;-69
2022/11/14 01:43:19;;;;;;;;;;;2.20;99.90;;;;;;5103882;28;20156;-69
2022/11/14 01:45:51;;;;;;;;;;;2.20;99.90;;;;;;5103594;28;19987;-68
2022/11/14 01:48:21;;;;;;;;;;;2.10;99.90;;;;;;5093705;28;19927;-70
2022/11/14 01:50:49;;;;;;;;;;;2.10;99.90;;;;;;5083238;28;19966;-70
2022/11/14 01:53:16;;;;;;;;;;;2.10;99.90;;;;;;5083098;28;19984;-68
2022/11/14 01:55:43;;;;;;;;;;;2.10;99.90;;;;;;5083227;28;19988;-68
2022/11/14 01:58:10;;;;;;;;;;;2.20;99.90;;;;;;5083120;28;19996;-69
2022/11/14 02:00:37;;;;;;;;;;;2.30;99.90;;;;;;5083223;28;20231;-68
2022/11/14 02:03:03;;;;;;;;;;;2.40;99.90;;;;;;5083111;28;19955;-68
2022/11/14 02:05:32;;;;;;;;;;;2.30;99.90;;;;;;5083200;28;19921;-70
2022/11/14 02:07:58;;;;;;;;;;;2.30;99.90;;;;;;5083477;28;19984;-72
2022/11/14 02:10:25;;;;;;;;;;;2.40;99.90;;;;;;5083427;28;19983;-69
2022/11/14 02:12:52;;;;;;;;;;;2.40;99.90;;;;;;5083339;28;20176;-69
2022/11/14 02:15:19;;;;;;;;;;;2.50;99.90;;;;;;5083161;28;19960;-70
2022/11/14 02:17:45;;;;;;;;;;;2.60;99.90;;;;;;5083286;28;19977;-69
2022/11/14 02:20:18;;;;;;;;;;;2.70;99.90;;;;;;5082978;28;20168;-69
2022/11/14 02:22:45;;;;;;;;;;;2.70;99.90;;;;;;5102649;28;19987;-68
2022/11/14 02:25:14;;;;;;;;;;;2.80;99.90;;;;;;5083038;28;19963;-69
2022/11/14 02:27:41;;;;;;;;;;;2.80;99.90;;;;;;5100745;28;19984;-68
2022/11/14 02:30:09;;;;;;;;;;;2.90;99.90;;;;;;5103417;28;19963;-68
2022/11/14 02:32:36;;;;;;;;;;;2.90;99.90;;;;;;5103129;28;19926;-69
2022/11/14 02:35:03;;;;;;;;;;;2.90;99.90;;;;;;5104449;28;19920;-70
2022/11/14 02:37:31;;;;;;;;;;;3.00;99.90;;;;;;5107446;28;20034;-70
2022/11/14 02:39:57;;;;;;;;;;;3.00;99.90;;;;;;5106996;28;20263;-69
2022/11/14 02:42:24;;;;;;;;;;;3.00;99.90;;;;;;5107223;28;19983;-68
2022/11/14 02:44:51;;;;;;;;;;;3.10;99.90;;;;;;5105729;28;19955;-69
2022/11/14 02:47:17;;;;;;;;;;;3.10;99.90;;;;;;5086503;28;20279;-69
2022/11/14 02:49:44;;;;;;;;;;;3.10;99.90;;;;;;5087282;28;19987;-70
2022/11/14 02:52:11;;;;;;;;;;;3.10;99.90;;;;;;5101534;28;20160;-68
2022/11/14 02:54:38;;;;;;;;;;;3.10;99.90;;;;;;5106824;28;19956;-69
2022/11/14 02:57:05;;;;;;;;;;;3.20;99.90;;;;;;5088795;28;19987;-70
2022/11/14 02:59:32;;;;;;;;;;;3.20;99.90;;;;;;5086571;28;19920;-69
2022/11/14 03:01:58;;;;;;;;;;;3.20;99.90;;;;;;5086496;28;19926;-70
2022/11/14 03:04:25;;;;;;;;;;;3.30;99.90;;;;;;5086216;28;20279;-69
2022/11/14 03:06:52;;;;;;;;;;;3.40;99.90;;;;;;5086218;28;19983;-69
2022/11/14 03:09:19;;;;;;;;;;;3.40;99.90;;;;;;5086061;28;19963;-69
2022/11/14 03:11:47;;;;;;;;;;;3.30;99.90;;;;;;5086362;28;19943;-71
2022/11/14 03:14:13;;;;;;;;;;;3.40;99.90;;;;;;5102507;22;19987;-68
2022/11/14 03:16:40;;;;;;;;;;;3.40;99.90;;;;;;5097565;28;19991;-69
2022/11/14 03:19:07;;;;;;;;;;;3.50;99.90;;;;;;5106341;28;19970;-69
2022/11/14 03:21:33;;;;;;;;;;;3.50;99.90;;;;;;5106281;28;19962;-68
2022/11/14 03:24:00;;;;;;;;;;;3.60;99.90;;;;;;5106272;28;19943;-69
2022/11/14 03:26:27;;;;;;;;;;;3.60;99.90;;;;;;5106262;28;19995;-69
2022/11/14 03:28:55;;;;;;;;;;;3.60;99.90;;;;;;5103058;28;19988;-69
2022/11/14 03:31:21;;;;;;;;;;;3.60;99.90;;;;;;5086142;28;19978;-68
2022/11/14 03:33:48;;;;;;;;;;;3.60;99.90;;;;;;5085670;28;19940;-70
2022/11/14 03:36:15;;;;;;;;;;;3.60;99.90;;;;;;5085482;28;20168;-69
2022/11/14 03:38:42;;;;;;;;;;;3.70;99.90;;;;;;5085568;28;19920;-69
2022/11/14 03:41:09;;;;;;;;;;;3.60;99.90;;;;;;5085478;28;19944;-69
2022/11/14 03:43:36;;;;;;;;;;;3.70;99.90;;;;;;5085548;28;19955;-69
2022/11/14 03:46:04;;;;;;;;;;;3.70;99.90;;;;;;5085173;28;19956;-69
2022/11/14 03:48:31;;;;;;;;;;;3.70;99.90;;;;;;5085734;28;19951;-69
2022/11/14 03:50:58;;;;;;;;;;;3.70;99.90;;;;;;5085744;28;20192;-69
2022/11/14 03:53:24;;;;;;;;;;;3.70;99.90;;;;;;5085688;28;19979;-69
2022/11/14 03:55:51;;;;;;;;;;;3.80;99.90;;;;;;5085213;28;19983;-69
2022/11/14 03:58:18;;;;;;;;;;;3.70;99.90;;;;;;5085199;28;20223;-69
2022/11/14 04:00:45;;;;;;;;;;;3.80;99.90;;;;;;5085616;28;19955;-71
2022/11/14 04:03:13;;;;;;;;;;;3.80;99.90;;;;;;5085396;28;19987;-69
2022/11/14 04:05:42;;;;;;;;;;;3.80;99.90;;;;;;5085024;28;19983;-69
2022/11/14 04:08:09;;;;;;;;;;;3.80;99.90;;;;;;5085137;28;19955;-69
2022/11/14 04:10:36;;;;;;;;;;;3.80;99.90;;;;;;5085335;28;19988;-70
2022/11/14 04:13:03;;;;;;;;;;;3.90;99.90;;;;;;5085271;28;19928;-69
2022/11/14 04:15:30;;;;;;;;;;;3.90;99.90;;;;;;5084866;28;19955;-69
2022/11/14 04:17:57;;;;;;;;;;;4.00;99.90;;;;;;5084819;28;19927;-68
2022/11/14 04:20:25;;;;;;;;;;;4.00;99.90;;;;;;5085097;28;19993;-69
2022/11/14 04:22:51;;;;;;;;;;;4.00;99.90;;;;;;5085075;28;19952;-69
2022/11/14 04:25:18;;;;;;;;;;;4.00;99.90;;;;;;5084671;28;20206;-69
2022/11/14 04:27:45;;;;;;;;;;;3.90;99.90;;;;;;5084609;28;19947;-69
2022/11/14 04:30:12;;;;;;;;;;;4.10;99.90;;;;;;5084872;28;19987;-68
2022/11/14 04:32:38;;;;;;;;;;;4.00;99.90;;;;;;5084422;28;19948;-69
2022/11/14 04:35:05;;;;;;;;;;;4.10;99.90;;;;;;5084432;28;19980;-69
2022/11/14 04:37:33;;;;;;;;;;;4.10;99.90;;;;;;5084678;28;19960;-69
2022/11/14 04:40:01;;;;;;;;;;;4.10;99.90;;;;;;5084646;28;19988;-68
2022/11/14 04:42:28;;;;;;;;;;;4.10;99.90;;;;;;5084575;28;19920;-69
2022/11/14 04:44:55;;;;;;;;;;;4.10;99.90;;;;;;5084048;28;19940;-69
2022/11/14 04:47:21;;;;;;;;;;;4.20;99.90;;;;;;5084441;28;19959;-69
2022/11/14 04:49:48;;;;;;;;;;;4.20;99.90;;;;;;5084540;28;19955;-68
2022/11/14 04:52:14;;;;;;;;;;;4.20;99.90;;;;;;5084171;28;19944;-69
2022/11/14 04:54:42;;;;;;;;;;;4.20;99.90;;;;;;5083681;28;19942;-69
2022/11/14 04:57:09;;;;;;;;;;;4.20;99.90;;;;;;5083630;28;19920;-69
2022/11/14 04:59:36;;;;;;;;;;;4.20;99.90;;;;;;5083840;28;19967;-69
2022/11/14 05:02:03;;;;;;;;;;;4.30;99.90;;;;;;5084383;28;19956;-69
2022/11/14 05:04:29;;;;;;;;;;;4.30;99.90;;;;;;5083869;28;19920;-69
2022/11/14 05:06:56;;;;;;;;;;;4.30;99.90;;;;;;5084130;28;19956;-69
2022/11/14 05:09:23;;;;;;;;;;;4.30;99.90;;;;;;5084168;28;19983;-69
2022/11/14 05:11:51;;;;;;;;;;;4.30;99.90;;;;;;5084166;28;20159;-69
2022/11/14 05:14:20;;;;;;;;;;;4.40;99.90;;;;;;5083665;28;19992;-68
2022/11/14 05:16:47;;;;;;;;;;;4.30;99.90;;;;;;5087105;28;19952;-69
2022/11/14 05:19:14;;;;;;;;;;;4.30;99.90;;;;;;5088106;28;19956;-70
2022/11/14 05:21:40;;;;;;;;;;;4.30;99.90;;;;;;5083948;28;19959;-69
2022/11/14 05:24:07;;;;;;;;;;;4.30;99.90;;;;;;5083873;28;19952;-69
2022/11/14 05:26:34;;;;;;;;;;;4.30;99.90;;;;;;5083827;28;19927;-69
2022/11/14 05:29:02;;;;;;;;;;;4.40;99.90;;;;;;5083943;28;20011;-70
2022/11/14 05:31:28;;;;;;;;;;;4.30;99.90;;;;;;5083722;28;19987;-69
2022/11/14 05:33:55;;;;;;;;;;;4.30;99.90;;;;;;5083484;28;20166;-68
2022/11/14 05:36:21;;;;;;;;;;;4.30;99.90;;;;;;5083510;28;19991;-69
2022/11/14 05:38:48;;;;;;;;;;;4.40;99.90;;;;;;5083750;28;20202;-69
2022/11/14 05:41:16;;;;;;;;;;;4.40;99.90;;;;;;5083770;28;19920;-69
2022/11/14 05:43:43;;;;;;;;;;;4.40;99.90;;;;;;5083119;28;19983;-69
2022/11/14 05:46:12;;;;;;;;;;;4.40;99.90;;;;;;5083170;28;19996;-69
2022/11/14 05:48:39;;;;;;;;;;;4.40;99.90;;;;;;5083245;28;19940;-69
2022/11/14 05:51:06;;;;;;;;;;;4.40;99.90;;;;;;5083474;28;20008;-68
2022/11/14 05:53:35;;;;;;;;;;;4.40;99.90;;;;;;5083331;28;19925;-69
2022/11/14 05:56:03;;;;;;;;;;;4.40;99.90;;;;;;5084088;28;19955;-69
2022/11/14 05:58:30;;;;;;;;;;;4.40;99.90;;;;;;5083212;28;19966;-69
2022/11/14 06:01:01;;;;;;;;;;;4.40;99.90;;;;;;5063799;28;19952;-70
2022/11/14 06:03:31;;;;;;;;;;;4.40;99.90;;;;;;5063561;28;19959;-68
2022/11/14 06:05:59;;;;;;;;;;;4.40;99.90;;;;;;5062626;28;19988;-69
2022/11/14 06:08:29;;;;;;;;;;;4.50;99.90;;;;;;5063093;28;19940;-70
2022/11/14 06:10:55;;;;;;;;;;;4.50;99.90;;;;;;5067425;28;19920;-70
2022/11/14 06:13:23;;;;;;;;;;;4.40;99.90;;;;;;5067391;28;19952;-70
2022/11/14 06:15:49;;;;;;;;;;;4.50;99.90;;;;;;5066704;28;19921;-70
2022/11/14 06:18:16;;;;;;;;;;;4.50;99.90;;;;;;5067428;28;19984;-70
2022/11/14 06:20:44;;;;;;;;;;;4.50;99.90;;;;;;5071979;28;19959;-70
2022/11/14 06:23:11;;;;;;;;;;;4.50;99.90;;;;;;5086991;28;19956;-70
2022/11/14 06:25:37;;;;;;;;;;;4.50;99.90;;;;;;5086851;28;19920;-71
2022/11/14 06:28:04;;;;;;;;;;;4.50;99.90;;;;;;5087374;28;19983;-77
2022/11/14 06:30:31;;;;;;;;;;;4.50;99.90;;;;;;5087153;28;19959;-71
2022/11/14 06:32:58;;;;;;;;;;;4.40;99.90;;;;;;5086274;28;19959;-71
2022/11/14 06:35:24;;;;;;;;;;;4.50;99.90;;;;;;5086339;28;19928;-71
2022/11/14 06:37:52;;;;;;;;;;;4.50;99.90;;;;;;5087019;28;20000;-71
2022/11/14 06:40:19;;;;;;;;;;;4.50;99.90;;;;;;5085925;28;19952;-71
2022/11/14 06:42:46;;;;;;;;;;;4.50;99.90;;;;;;5086851;28;20179;-71
2022/11/14 06:45:12;;;;;;;;;;;4.50;99.90;;;;;;5086561;28;19979;-71
2022/11/14 06:47:39;;;;;;;;;;;4.50;99.90;;;;;;5086867;28;19960;-70
2022/11/14 06:50:06;;;;;;;;;;;4.50;99.90;;;;;;5086784;28;19963;-71
2022/11/14 06:52:33;;;;;;;;;;;4.50;99.90;;;;;;5086755;28;20054;-71
2022/11/14 06:55:01;;;;;;;;;;;4.40;99.90;;;;;;5086365;28;19951;-71
2022/11/14 06:57:27;;;;;;;;;;;4.50;99.90;;;;;;5086159;28;20208;-69
2022/11/14 06:59:54;;;;;;;;;;;4.40;99.90;;;;;;5086137;28;19984;-71
2022/11/14 07:02:21;;;;;;;;;;;4.50;99.90;;;;;;5081799;28;19995;-71
2022/11/14 07:04:47;;;;;;;;;;;4.40;99.90;;;;;;5081585;28;19944;-71
2022/11/14 07:07:14;;;;;;;;;;;4.50;99.90;;;;;;5084456;28;19992;-70
2022/11/14 07:09:40;;;;;;;;;;;4.50;99.90;;;;;;5086066;28;19987;-71
2022/11/14 07:12:09;;;;;;;;;;;4.50;99.90;;;;;;5084858;28;19992;-72
2022/11/14 07:14:36;;;;;;;;;;;4.50;99.90;;;;;;5085651;28;19988;-70
2022/11/14 07:17:02;;;;;;;;;;;4.50;99.90;;;;;;5083074;28;19983;-70
2022/11/14 07:19:29;;;;;;;;;;;4.50;99.90;;;;;;5071460;28;19991;-71
2022/11/14 07:21:56;;;;;;;;;;;4.50;99.90;;;;;;5085186;28;19920;-70
2022/11/14 07:24:22;;;;;;;;;;;4.50;99.90;;;;;;5085099;28;19983;-70
2022/11/14 07:26:49;;;;;;;;;;;4.50;99.90;;;;;;5085585;28;19980;-71
2022/11/14 07:29:17;;;;;;;;;;;4.50;99.90;;;;;;5085341;28;20164;-73
2022/11/14 07:31:44;;;;;;;;;;;4.60;99.90;;;;;;5080632;28;19995;-71
2022/11/14 07:34:11;;;;;;;;;;;4.60;99.90;;;;;;5082561;28;19988;-71
2022/11/14 07:36:37;;;;;;;;;;;4.60;99.90;;;;;;5084558;28;19962;-71
2022/11/14 07:39:04;;;;;;;;;;;4.60;99.90;;;;;;5082001;28;19979;-71
2022/11/14 07:41:30;;;;;;;;;;;4.60;99.90;;;;;;5084664;28;19963;-69
2022/11/14 07:43:57;;;;;;;;;;;4.60;99.90;;;;;;5085621;28;20008;-71
2022/11/14 07:46:25;;;;;;;;;;;4.60;99.90;;;;;;5084409;28;20226;-71
2022/11/14 07:48:52;;;;;;;;;;;4.60;99.90;;;;;;5084963;28;19991;-71
2022/11/14 07:51:19;;;;;;;;;;;4.60;99.90;;;;;;5083971;28;19987;-69
2022/11/14 07:53:46;;;;;;;;;;;4.60;99.90;;;;;;5085456;28;19988;-71
2022/11/14 07:56:13;;;;;;;;;;;4.60;99.90;;;;;;5084812;28;20277;-71
2022/11/14 07:58:40;;;;;;;;;;;4.60;99.90;;;;;;5084125;28;19928;-70
2022/11/14 08:01:07;;;;;;;;;;;4.60;99.90;;;;;;5085242;28;19955;-71
2022/11/14 08:03:35;;;;;;;;;;;4.60;99.90;;;;;;5083721;28;19924;-70
2022/11/14 08:06:03;;;;;;;;;;;4.60;99.90;;;;;;5084965;28;19995;-70
2022/11/14 08:08:29;;;;;;;;;;;4.70;99.90;;;;;;5084621;28;20231;-69
2022/11/14 08:10:56;;;;;;;;;;;4.70;99.90;;;;;;5084710;28;19960;-71
2022/11/14 08:13:23;;;;;;;;;;;4.60;99.90;;;;;;5085118;28;19966;-72
2022/11/14 08:15:50;;;;;;;;;;;4.70;99.90;;;;;;5084527;28;19955;-70
2022/11/14 08:18:17;;;;;;;;;;;4.60;99.90;;;;;;5084218;28;19921;-70
2022/11/14 08:20:45;;;;;;;;;;;4.70;99.90;;;;;;5084854;28;19948;-69
2022/11/14 08:23:11;;;;;;;;;;;4.70;99.90;;;;;;5084389;28;19983;-70
2022/11/14 08:25:38;;;;;;;;;;;4.80;99.90;;;;;;5079870;28;20215;-69
2022/11/14 08:28:05;;;;;;;;;;;4.80;99.90;;;;;;5084077;28;19921;-69
2022/11/14 08:30:31;;;;;;;;;;;4.80;99.90;;;;;;5083865;28;20174;-72
2022/11/14 08:33:00;;;;;;;;;;;4.80;99.90;;;;;;5083068;28;20068;-69
2022/11/14 08:35:27;;;;;;;;;;;4.80;99.90;;;;;;5083534;28;20156;-69
2022/11/14 08:37:55;;;;;;;;;;;4.80;99.90;;;;;;5084046;28;20247;-69
2022/11/14 08:40:22;;;;;;;;;;;4.80;99.90;;;;;;5084303;28;20000;-69
2022/11/14 08:42:49;;;;;;;;;;;4.90;99.90;;;;;;5083635;28;20204;-69
2022/11/14 08:45:15;;;;;;;;;;;4.90;99.90;;;;;;5083905;28;19955;-70
2022/11/14 08:47:42;;;;;;;;;;;4.90;99.90;;;;;;5084213;28;20119;-69
2022/11/14 08:50:09;;;;;;;;;;;5.00;99.90;;;;;;5083261;28;19999;-68
2022/11/14 08:52:35;;;;;;;;;;;5.00;99.90;;;;;;5084177;28;19927;-70
2022/11/14 08:55:04;;;;;;;;;;;5.00;99.90;;;;;;5083762;28;19963;-69
2022/11/14 08:57:30;;;;;;;;;;;5.00;99.90;;;;;;5083437;28;20155;-69
2022/11/14 08:59:57;;;;;;;;;;;5.00;99.90;;;;;;5083265;28;19959;-68
2022/11/14 09:02:23;;;;;;;;;;;5.00;99.90;;;;;;5083233;28;20133;-69
2022/11/14 09:04:50;;;;;;;;;;;5.10;99.90;;;;;;5082343;28;20254;-69
2022/11/14 09:07:17;;;;;;;;;;;5.10;99.90;;;;;;5081860;28;19951;-71
2022/11/14 09:09:43;;;;;;;;;;;5.20;99.90;;;;;;5082255;28;20257;-69
2022/11/14 09:12:11;;;;;;;;;;;5.20;99.90;;;;;;5083746;28;19928;-71
2022/11/14 09:14:38;;;;;;;;;;;5.20;99.90;;;;;;5083039;28;19983;-71
2022/11/14 09:17:05;;;;;;;;;;;5.30;99.90;;;;;;5083667;28;19983;-71
2022/11/14 09:19:31;;;;;;;;;;;5.30;99.90;;;;;;5082258;28;19974;-71
2022/11/14 09:21:58;;;;;;;;;;;5.30;99.90;;;;;;5083180;28;19983;-70
2022/11/14 09:24:24;;;;;;;;;;;5.40;99.90;;;;;;5083552;28;19952;-69
2022/11/14 09:26:51;;;;;;;;;;;5.40;99.90;;;;;;5083190;28;20170;-71
2022/11/14 09:29:19;;;;;;;;;;;5.50;99.90;;;;;;5082899;28;19920;-70
2022/11/14 09:31:46;;;;;;;;;;;5.60;99.90;;;;;;5083332;28;19955;-71
2022/11/14 09:34:13;;;;;;;;;;;5.70;99.90;;;;;;5083609;28;19983;-71
2022/11/14 09:36:40;;;;;;;;;;;5.70;99.90;;;;;;5082854;28;19942;-70
2022/11/14 09:39:06;;;;;;;;;;;5.70;99.90;;;;;;5078071;28;19983;-69
2022/11/14 09:41:39;;;;;;;;;;;5.70;99.90;;;;;;5082515;28;19979;-69
2022/11/14 09:44:19;;;;;;;;;;;5.70;99.90;;;;;;5083366;28;19960;-69
2022/11/14 09:46:48;;;;;;;;;;;5.80;99.90;;;;;;5082776;28;20227;-69
2022/11/14 09:49:23;;;;;;;;;;;5.70;99.90;;;;;;5083650;28;19978;-69
2022/11/14 09:51:52;;;;;;;;;;;5.80;99.90;;;;;;5083578;28;20232;-70
2022/11/14 09:54:22;;;;;;;;;;;5.90;99.90;;;;;;5082739;28;20133;-70
2022/11/14 09:56:49;;;;;;;;;;;6.00;99.90;;;;;;5083192;28;19928;-73
2022/11/14 09:59:15;;;;;;;;;;;6.00;99.90;;;;;;5083077;28;19987;-70
2022/11/14 10:01:46;;;;;;;;;;;6.10;99.90;;;;;;5077181;28;19959;-70
2022/11/14 10:04:20;;;;;;;;;;;6.20;99.90;;;;;;5082976;28;19948;-69
2022/11/14 10:06:53;;;;;;;;;;;6.30;99.90;;;;;;5076161;28;20008;-69
2022/11/14 10:09:31;;;;;;;;;;;6.40;99.90;;;;;;5082704;28;19983;-69
2022/11/14 10:12:01;;;;;;;;;;;6.50;99.90;;;;;;5082711;28;19983;-70
2022/11/14 10:14:33;;;;;;;;;;;6.60;99.90;;;;;;5082371;28;20144;-70
2022/11/14 10:17:05;;;;;;;;;;;6.80;99.90;;;;;;5083422;28;19983;-70
2022/11/14 10:19:38;;;;;;;;;;;6.80;99.90;;;;;;5082618;28;20172;-70
2022/11/14 10:22:11;;;;;;;;;;;6.80;99.90;;;;;;5083278;28;19983;-70
2022/11/14 10:24:50;;;;;;;;;;;6.80;99.90;;;;;;5082538;28;20228;-69
2022/11/14 10:27:18;;;;;;;;;;;6.80;99.90;;;;;;5068849;28;19959;-69
2022/11/14 10:30:00;;;;;;;;;;;6.90;99.90;;;;;;5082500;28;19983;-69
2022/11/14 10:32:32;;;;;;;;;;;6.90;99.90;;;;;;5060930;28;20171;-69
2022/11/14 10:35:02;;;;;;;;;;;7.00;99.90;;;;;;5062688;28;19956;-70
2022/11/14 10:37:31;;;;;;;;;;;7.20;99.90;;;;;;5075403;28;19958;-69
2022/11/14 10:40:02;;;;;;;;;;;7.30;99.90;;;;;;5074211;28;19999;-69
2022/11/14 10:42:31;;;;;;;;;;;7.50;99.90;;;;;;5082841;28;19952;-70
2022/11/14 10:45:01;;;;;;;;;;;7.60;99.90;;;;;;5082249;28;19955;-69
2022/11/14 10:47:36;;;;;;;;;;;7.60;99.90;;;;;;5082895;28;19979;-69
2022/11/14 10:50:12;;;;;;;;;;;7.80;99.90;;;;;;5082348;28;20156;-69
2022/11/14 10:52:41;;;;;;;;;;;8.00;99.90;;;;;;5083136;28;19952;-69
2022/11/14 10:55:13;;;;;;;;;;;8.20;99.90;;;;;;5082352;28;19997;-69
2022/11/14 10:57:39;;;;;;;;;;;8.30;99.90;;;;;;5086414;28;19991;-69
2022/11/14 11:00:11;;;;;;;;;;;8.50;99.90;;;;;;5085777;28;19983;-70
2022/11/14 11:02:47;;;;;;;;;;;8.60;99.90;;;;;;5086235;28;20112;-71
2022/11/14 11:05:16;;;;;;;;;;;8.70;99.90;;;;;;5086171;28;19955;-70
2022/11/14 11:13:14;;;;;;;;;;;9.30;99.90;;;;;;5086264;28;20005;-71
2022/11/14 11:15:41;;;;;;;;;;;9.60;99.90;;;;;;5085848;28;19994;-71
2022/11/14 11:18:24;;;;;;;;;;;9.80;99.90;;;;;;5086309;28;19928;-70
2022/11/14 11:21:03;;;;;;;;;;;9.90;99.90;;;;;;5086113;28;19927;-70
2022/11/14 11:23:29;;;;;;;;;;;10.10;99.90;;;;;;5086097;28;19983;-70
2022/11/14 11:25:58;;;;;;;;;;;10.30;99.90;;;;;;5086015;28;19959;-71
2022/11/14 11:28:26;;;;;;;;;;;10.40;99.90;;;;;;5085582;28;19985;-70
2022/11/14 11:30:56;;;;;;;;;;;10.40;99.90;;;;;;5085836;28;19928;-71
2022/11/14 11:33:24;;;;;;;;;;;10.50;99.90;;;;;;5085989;28;19925;-70
2022/11/14 11:35:53;;;;;;;;;;;10.60;99.90;;;;;;5085110;28;20012;-72
2022/11/14 11:38:21;;;;;;;;;;;10.80;99.90;;;;;;5085565;28;19920;-70
2022/11/14 11:40:50;;;;;;;;;;;10.80;99.90;;;;;;5085067;28;19999;-71
2022/11/14 11:43:20;;;;;;;;;;;10.90;99.90;;;;;;5069270;28;19984;-71
2022/11/14 11:45:49;;;;;;;;;;;11.10;99.90;;;;;;5080710;28;19979;-70
2022/11/14 11:48:17;;;;;;;;;;;11.30;99.90;;;;;;5083859;28;19983;-70
2022/11/14 11:50:44;;;;;;;;;;;11.30;99.90;;;;;;5084825;28;19996;-70
2022/11/14 11:53:14;;;;;;;;;;;11.40;99.90;;;;;;5085411;28;19955;-70
2022/11/14 11:55:43;;;;;;;;;;;11.50;99.90;;;;;;5085023;28;19935;-70
2022/11/14 11:58:13;;;;;;;;;;;11.60;99.90;;;;;;5085354;28;19997;-70
2022/11/14 12:00:39;;;;;;;;;;;11.70;99.90;;;;;;5072997;28;19960;-70
2022/11/14 12:03:11;;;;;;;;;;;11.90;99.90;;;;;;5066362;28;19956;-70
2022/11/14 12:05:48;;;;;;;;;;;11.70;99.90;;;;;;5084948;28;19988;-71
2022/11/14 12:08:20;;;;;;;;;;;11.60;99.90;;;;;;5081604;28;19963;-71
2022/11/14 12:10:49;;;;;;;;;;;11.50;99.90;;;;;;5080567;28;19992;-71
2022/11/14 12:13:25;;;;;;;;;;;11.50;99.90;;;;;;5083732;28;19959;-72
2022/11/14 12:15:58;;;;;;;;;;;11.40;99.90;;;;;;5072103;28;19962;-71
2022/11/14 12:18:35;;;;;;;;;;;11.20;99.90;;;;;;5082521;28;19921;-69
2022/11/14 12:21:12;;;;;;;;;;;11.00;99.90;;;;;;5073588;28;19928;-70
2022/11/14 12:23:55;;;;;;;;;;;10.90;99.90;;;;;;5064538;28;19921;-70
2022/11/14 12:26:35;;;;;;;;;;;10.80;99.90;;;;;;5064573;28;19932;-70
2022/11/14 12:29:16;;;;;;;;;;;10.70;99.90;;;;;;5080372;28;19991;-70
2022/11/14 12:31:43;;;;;;;;;;;10.70;99.90;;;;;;5080501;28;19955;-70
2022/11/14 12:34:14;;;;;;;;;;;10.70;99.90;;;;;;5073366;28;20279;-71
2022/11/14 12:36:42;;;;;;;;;;;10.60;99.90;;;;;;5083044;28;20204;-70
2022/11/14 12:39:20;;;;;;;;;;;10.60;99.90;;;;;;5084070;28;19995;-70
2022/11/14 12:41:48;;;;;;;;;;;10.60;99.90;;;;;;5084269;28;19991;-71
2022/11/14 12:44:19;;;;;;;;;;;10.50;99.90;;;;;;5084907;28;19948;-70
2022/11/14 12:47:10;;;;;;;;;;;10.50;99.90;;;;;;5084410;28;19952;-71
2022/11/14 12:49:37;;;;;;;;;;;10.40;99.90;;;;;;5068919;28;19959;-69
2022/11/14 12:52:04;;;;;;;;;;;10.40;99.90;;;;;;5084025;28;20275;-70
2022/11/14 12:54:42;;;;;;;;;;;10.40;99.90;;;;;;5084135;28;19958;-70
2022/11/14 12:57:46;;;;;;;;;;;10.50;99.90;;;;;;5084354;28;20112;-70
2022/11/14 13:00:03;;;;;;;;;;;10.70;99.90;;;;;;5083579;28;19921;-70
2022/11/14 13:02:44;;;;;;;;;;;10.70;99.90;;;;;;5083625;28;19984;-71
2022/11/14 13:05:23;;;;;;;;;;;10.70;99.90;;;;;;5083633;28;19984;-70
2022/11/14 13:07:58;;;;;;;;;;;10.80;99.90;;;;;;5084043;28;20281;-70
2022/11/14 13:10:27;;;;;;;;;;;10.70;99.90;;;;;;5083997;28;19956;-70
2022/11/14 13:24:03;;;;;;;;;;;10.40;99.90;;;;;;5083757;28;19959;-70
2022/11/14 13:26:47;;;;;;;;;;;10.40;99.90;;;;;;5075131;28;20033;-70
2022/11/14 13:29:32;;;;;;;;;;;10.40;99.90;;;;;;5071918;28;19989;-71
2022/11/14 13:32:00;;;;;;;;;;;10.50;99.90;;;;;;5083765;28;20283;-70
2022/11/14 13:34:33;;;;;;;;;;;10.40;99.90;;;;;;5083663;28;20272;-70
2022/11/14 13:37:05;;;;;;;;;;;10.40;99.90;;;;;;5074457;28;19991;-69
2022/11/14 13:39:37;;;;;;;;;;;10.60;99.90;;;;;;5083077;28;19980;-70
2022/11/14 13:42:19;;;;;;;;;;;10.80;99.90;;;;;;5067188;28;19920;-70
2022/11/14 13:45:03;;;;;;;;;;;10.90;99.90;;;;;;5067610;28;19920;-70
2022/11/14 13:47:40;;;;;;;;;;;10.90;99.90;;;;;;5073537;28;19983;-71
2022/11/14 13:50:08;;;;;;;;;;;10.90;99.90;;;;;;5083487;28;19983;-71
2022/11/14 13:52:39;;;;;;;;;;;10.90;99.90;;;;;;5083537;28;19967;-70
2022/11/14 13:55:07;;;;;;;;;;;10.80;99.90;;;;;;5083271;28;20248;-70
2022/11/14 13:57:41;;;;;;;;;;;10.80;99.90;;;;;;5083083;28;19962;-70
2022/11/14 14:00:11;;;;;;;;;;;10.90;99.90;;;;;;5083180;28;20223;-70
2022/11/14 14:02:53;;;;;;;;;;;11.00;99.90;;;;;;5082884;28;19921;-71
2022/11/14 14:05:32;;;;;;;;;;;11.00;99.90;;;;;;5083214;28;20267;-70
2022/11/14 14:08:03;;;;;;;;;;;11.20;99.90;;;;;;5083299;28;19991;-70
2022/11/14 14:10:34;;;;;;;;;;;11.20;99.90;;;;;;5068821;28;19952;-70
2022/11/14 14:13:10;;;;;;;;;;;11.20;99.90;;;;;;5068334;28;19952;-70
2022/11/14 14:15:42;;;;;;;;;;;11.30;99.90;;;;;;5062859;28;20388;-70
2022/11/14 14:18:18;;;;;;;;;;;11.50;99.90;;;;;;5067831;28;19983;-70
2022/11/14 14:20:46;;;;;;;;;;;11.60;99.90;;;;;;5082759;28;19970;-69
2022/11/14 14:23:18;;;;;;;;;;;11.70;99.90;;;;;;5083224;28;19925;-70
2022/11/14 14:25:48;;;;;;;;;;;11.70;99.90;;;;;;5083196;28;19958;-70
2022/11/14 14:28:19;;;;;;;;;;;11.80;99.90;;;;;;5082996;28;19924;-73
2022/11/14 14:31:02;;;;;;;;;;;11.90;99.90;;;;;;5066407;28;20167;-70
2022/11/14 14:33:38;;;;;;;;;;;11.90;99.90;;;;;;5086576;28;19959;-70
2022/11/14 14:36:05;;;;;;;;;;;11.80;99.90;;;;;;5086638;28;20035;-71
2022/11/14 14:38:34;;;;;;;;;;;11.70;99.90;;;;;;5086746;28;19925;-71
2022/11/14 14:41:01;;;;;;;;;;;11.60;99.90;;;;;;5086606;28;19927;-70
2022/11/14 14:43:30;;;;;;;;;;;11.50;99.90;;;;;;5086836;28;20231;-70
2022/11/14 14:45:57;;;;;;;;;;;11.40;99.90;;;;;;5086745;28;19987;-71
2022/11/14 14:48:25;;;;;;;;;;;11.30;99.90;;;;;;5087036;28;19955;-71
2022/11/14 14:50:54;;;;;;;;;;;11.20;99.90;;;;;;5086506;28;19948;-72